createdAt,value
2018-12-27T00:01:26.912Z,99263.18
2018-12-27T00:03:55.315Z,99259.63
2018-12-27T00:06:23.720Z,99261.11
2018-12-27T00:08:52.142Z,99250.84
2018-12-27T00:11:20.536Z,99251.25
2018-12-27T00:13:48.940Z,99249.32
2018-12-27T00:16:17.358Z,99242.56
2018-12-27T00:18:46.051Z,99243.88
2018-12-27T00:21:14.506Z,99242.52
2018-12-27T00:23:43.217Z,99239.23
2018-12-27T00:26:11.623Z,99238.95
2018-12-27T00:28:40.020Z,99234.34
2018-12-27T00:31:08.562Z,99232.38
2018-12-27T00:33:37.346Z,99227.28
2018-12-27T00:36:05.871Z,99220.78
2018-12-27T00:38:34.415Z,99218.59
2018-12-27T00:41:03.198Z,99221.78
2018-12-27T00:43:31.731Z,99215.56
2018-12-27T00:46:00.514Z,99218.11
2018-12-27T00:48:29.042Z,99215.11
2018-12-27T00:50:57.575Z,99208.37
2018-12-27T00:53:26.120Z,99212.75
2018-12-27T00:55:54.647Z,99220.48
2018-12-27T00:58:23.169Z,99218.07
2018-12-27T01:00:51.715Z,99226.02
2018-12-27T01:03:20.247Z,99225.67
2018-12-27T01:05:48.779Z,99218.07
2018-12-27T01:08:17.380Z,99216.84
2018-12-27T01:10:45.907Z,99221.64
2018-12-27T01:13:14.437Z,99221.61
2018-12-27T01:15:42.979Z,99225.63
2018-12-27T01:18:11.502Z,99224.05
2018-12-27T01:20:40.048Z,99221.91
2018-12-27T01:23:27.832Z,99219.62
2018-12-27T01:25:56.379Z,99219.95
2018-12-27T01:28:24.912Z,99218.98
2018-12-27T01:30:53.494Z,99224.34
2018-12-27T01:33:22.044Z,99217.47
2018-12-27T01:35:50.570Z,99216.97
2018-12-27T01:38:19.099Z,99213.44
2018-12-27T01:40:47.647Z,99215.27
2018-12-27T01:43:16.177Z,99210.73
2018-12-27T01:45:45.008Z,99207.92
2018-12-27T01:48:13.952Z,99209.08
2018-12-27T01:50:42.795Z,99204.95
2018-12-27T01:53:11.580Z,99202.39
2018-12-27T01:55:40.365Z,99204.36
2018-12-27T01:58:08.909Z,99205.07
2018-12-27T02:00:37.443Z,99204.06
2018-12-27T02:03:05.967Z,99202.73
2018-12-27T02:05:54.057Z,99202.78
2018-12-27T02:08:22.844Z,99193.47
2018-12-27T02:10:51.430Z,99203.13
2018-12-27T02:13:20.027Z,99200.40
2018-12-27T02:15:48.794Z,99197.59
2018-12-27T02:18:17.343Z,99201.70
2018-12-27T02:20:45.880Z,99195.75
2018-12-27T02:23:14.408Z,99192.66
2018-12-27T02:25:42.964Z,99188.48
2018-12-27T02:28:11.563Z,99190.56
2018-12-27T02:30:40.150Z,99186.34
2018-12-27T02:33:08.704Z,99187.08
2018-12-27T02:35:37.297Z,99181.89
2018-12-27T02:38:05.835Z,99179.19
2018-12-27T02:40:53.707Z,99176.78
2018-12-27T02:43:22.239Z,99172.33
2018-12-27T02:45:50.839Z,99169.41
2018-12-27T02:48:19.678Z,99163.73
2018-12-27T02:50:48.202Z,99162.35
2018-12-27T02:53:16.734Z,99167.66
2018-12-27T02:55:45.550Z,99165.50
2018-12-27T02:58:14.325Z,99156.45
2018-12-27T03:00:42.854Z,99154.46
2018-12-27T03:03:11.712Z,99129.98
2018-12-27T03:05:40.506Z,99149.13
2018-12-27T03:08:09.051Z,99138.31
2018-12-27T03:10:37.652Z,99139.02
2018-12-27T03:13:06.174Z,99135.09
2018-12-27T03:15:36.282Z,99139.72
2018-12-27T03:18:04.817Z,99136.80
2018-12-27T03:20:33.347Z,99135.77
2018-12-27T03:23:22.240Z,99134.21
2018-12-27T03:25:51.084Z,99128.92
2018-12-27T03:28:19.926Z,99127.23
2018-12-27T03:30:48.478Z,99119.45
2018-12-27T03:33:16.993Z,99114.20
2018-12-27T03:35:45.841Z,99111.16
2018-12-27T03:38:14.428Z,99111.29
2018-12-27T03:40:42.964Z,99115.95
2018-12-27T03:43:11.511Z,99117.33
2018-12-27T03:45:40.380Z,99105.30
2018-12-27T03:48:09.259Z,99093.11
2018-12-27T03:50:37.810Z,99097.10
2018-12-27T03:53:06.635Z,99100.16
2018-12-27T03:55:35.166Z,99102.37
2018-12-27T03:58:03.692Z,99096.96
2018-12-27T04:00:32.253Z,99093.39
2018-12-27T04:03:00.774Z,99089.17
2018-12-27T04:05:29.650Z,99092.10
2018-12-27T04:07:58.196Z,99092.00
2018-12-27T04:10:26.733Z,99088.44
2018-12-27T04:12:55.603Z,99081.36
2018-12-27T04:15:24.297Z,99076.79
2018-12-27T04:17:52.694Z,99081.23
2018-12-27T04:20:21.092Z,99075.53
2018-12-27T04:22:49.519Z,99073.00
2018-12-27T04:25:18.048Z,99074.99
2018-12-27T04:27:46.444Z,99071.87
2018-12-27T04:30:15.280Z,99075.22
2018-12-27T04:32:44.822Z,99081.55
2018-12-27T04:35:13.293Z,99071.03
2018-12-27T04:37:41.706Z,99070.74
2018-12-27T04:40:10.104Z,99069.30
2018-12-27T04:42:39.328Z,99070.30
2018-12-27T04:45:07.746Z,99080.14
2018-12-27T04:47:36.492Z,99073.13
2018-12-27T04:50:05.663Z,99077.59
2018-12-27T04:52:34.072Z,99077.14
2018-12-27T04:55:02.481Z,99081.15
2018-12-27T04:57:30.893Z,99079.33
2018-12-27T04:59:59.611Z,99080.37
2018-12-27T05:02:28.316Z,99078.33
2018-12-27T05:04:56.983Z,99072.72
2018-12-27T05:07:25.402Z,99070.51
2018-12-27T05:09:53.799Z,99071.73
2018-12-27T05:12:22.197Z,99083.41
2018-12-27T05:14:50.915Z,99075.40
2018-12-27T05:17:19.315Z,99080.68
2018-12-27T05:19:47.733Z,99077.27
2018-12-27T05:22:16.134Z,99074.78
2018-12-27T05:24:44.537Z,99075.58
2018-12-27T05:27:12.947Z,99084.30
2018-12-27T05:29:41.404Z,99081.77
2018-12-27T05:32:09.799Z,99083.80
2018-12-27T05:34:38.283Z,99086.23
2018-12-27T05:37:06.686Z,99089.62
2018-12-27T05:39:35.086Z,99085.33
2018-12-27T05:42:03.495Z,99084.31
2018-12-27T05:44:31.902Z,99087.52
2018-12-27T05:47:00.651Z,99081.44
2018-12-27T05:49:29.344Z,99077.59
2018-12-27T05:51:57.740Z,99082.03
2018-12-27T05:54:26.158Z,99087.64
2018-12-27T05:56:54.549Z,99086.48
2018-12-27T05:59:23.261Z,99084.51
2018-12-27T06:01:51.675Z,99084.42
2018-12-27T06:04:20.142Z,99084.78
2018-12-27T06:06:48.463Z,99083.20
2018-12-27T06:09:17.186Z,99077.73
2018-12-27T06:11:45.871Z,99067.98
2018-12-27T06:14:14.284Z,99071.06
2018-12-27T06:16:42.685Z,99070.33
2018-12-27T06:19:11.417Z,99068.69
2018-12-27T06:21:39.836Z,99072.74
2018-12-27T06:24:08.230Z,99076.22
2018-12-27T06:26:36.624Z,99079.63
2018-12-27T06:29:05.035Z,99078.92
2018-12-27T06:31:33.454Z,99077.75
2018-12-27T06:34:01.848Z,99079.58
2018-12-27T06:36:30.481Z,99078.61
2018-12-27T06:38:58.985Z,99073.09
2018-12-27T06:41:27.368Z,99076.11
2018-12-27T06:43:55.781Z,99078.73
2018-12-27T06:46:24.177Z,99077.66
2018-12-27T06:48:52.569Z,99084.26
2018-12-27T06:51:21.262Z,99082.64
2018-12-27T06:53:49.662Z,99085.02
2018-12-27T06:56:18.060Z,99085.57
2018-12-27T06:58:46.806Z,99077.59
2018-12-27T07:01:15.205Z,99089.20
2018-12-27T07:03:43.870Z,99083.17
2018-12-27T07:06:12.287Z,99078.02
2018-12-27T07:08:40.941Z,99079.55
2018-12-27T07:11:09.352Z,99070.63
2018-12-27T07:13:38.101Z,99060.49
2018-12-27T07:16:06.500Z,99075.82
2018-12-27T07:18:34.892Z,99075.56
2018-12-27T07:21:03.365Z,99073.80
2018-12-27T07:23:31.765Z,99073.58
2018-12-27T07:26:00.510Z,99076.18
2018-12-27T07:28:28.938Z,99071.27
2018-12-27T07:30:57.573Z,99071.27
2018-12-27T07:33:26.277Z,99073.63
2018-12-27T07:35:54.946Z,99080.25
2018-12-27T07:38:23.396Z,99083.97
2018-12-27T07:40:52.116Z,99084.77
2018-12-27T07:43:20.533Z,99075.05
2018-12-27T07:45:48.931Z,99074.67
2018-12-27T07:48:17.661Z,99068.05
2018-12-27T07:50:46.552Z,99069.69
2018-12-27T07:53:14.960Z,99068.95
2018-12-27T07:55:43.372Z,99072.52
2018-12-27T07:58:12.104Z,99073.80
2018-12-27T08:00:40.515Z,99067.48
2018-12-27T08:03:08.907Z,99064.69
2018-12-27T08:05:37.318Z,99061.74
2018-12-27T08:08:05.725Z,99064.22
2018-12-27T08:10:34.411Z,99058.58
2018-12-27T08:13:02.807Z,99061.48
2018-12-27T08:15:31.219Z,99059.86
2018-12-27T08:17:59.611Z,99065.56
2018-12-27T08:20:28.007Z,99058.56
2018-12-27T08:22:56.419Z,99061.97
2018-12-27T08:25:24.814Z,99069.34
2018-12-27T08:27:53.599Z,99064.31
2018-12-27T08:30:22.258Z,99059.58
2018-12-27T08:32:50.952Z,99062.52
2018-12-27T08:35:19.348Z,99056.64
2018-12-27T08:37:47.754Z,99057.19
2018-12-27T08:40:16.149Z,99057.84
2018-12-27T08:42:44.858Z,99058.16
2018-12-27T08:45:13.272Z,99059.41
2018-12-27T08:47:41.924Z,99055.72
2018-12-27T08:50:10.319Z,99066.55
2018-12-27T08:52:38.787Z,99071.76
2018-12-27T08:55:07.252Z,99060.22
2018-12-27T08:57:35.952Z,99061.74
2018-12-27T09:00:06.887Z,99059.78
2018-12-27T09:02:35.570Z,99055.87
2018-12-27T09:05:04.361Z,99053.20
2018-12-27T09:07:32.773Z,99054.73
2018-12-27T09:10:01.163Z,99046.30
2018-12-27T09:12:29.551Z,99055.87
2018-12-27T09:14:58.017Z,99051.48
2018-12-27T09:17:26.411Z,99056.31
2018-12-27T09:19:54.802Z,99054.72
2018-12-27T09:22:23.265Z,99046.50
2018-12-27T09:24:51.667Z,99051.80
2018-12-27T09:27:20.061Z,99046.42
2018-12-27T09:29:48.467Z,99053.48
2018-12-27T09:32:17.143Z,99043.52
2018-12-27T09:34:45.831Z,99048.42
2018-12-27T09:37:14.514Z,99043.52
2018-12-27T09:39:43.196Z,99041.75
2018-12-27T09:42:11.887Z,99037.72
2018-12-27T09:44:40.287Z,99038.19
2018-12-27T09:47:08.688Z,99037.92
2018-12-27T09:49:37.324Z,99033.55
2018-12-27T09:52:05.731Z,99035.80
2018-12-27T09:54:34.394Z,99035.31
2018-12-27T09:57:03.090Z,99037.35
2018-12-27T09:59:31.485Z,99036.07
2018-12-27T10:01:59.893Z,99028.47
2018-12-27T10:04:28.280Z,99030.61
2018-12-27T10:06:57.004Z,99036.10
2018-12-27T10:09:25.411Z,99033.85
2018-12-27T10:11:54.912Z,99031.23
2018-12-27T10:14:23.323Z,99026.13
2018-12-27T10:16:52.053Z,99032.25
2018-12-27T10:19:20.744Z,99021.88
2018-12-27T10:21:49.147Z,99023.93
2018-12-27T10:24:17.534Z,99029.08
2018-12-27T10:26:46.169Z,99023.83
2018-12-27T10:29:14.571Z,99024.23
2018-12-27T10:31:42.965Z,99022.61
2018-12-27T10:34:11.625Z,99025.77
2018-12-27T10:36:40.882Z,99021.98
2018-12-27T10:39:09.613Z,99019.80
2018-12-27T10:41:38.008Z,99018.69
2018-12-27T10:44:06.488Z,99016.48
2018-12-27T10:46:34.877Z,99005.34
2018-12-27T10:49:03.640Z,99004.09
2018-12-27T10:51:32.325Z,98995.48
2018-12-27T10:54:01.013Z,99004.92
2018-12-27T10:56:29.405Z,98999.03
2018-12-27T10:58:57.810Z,98995.05
2018-12-27T11:01:26.200Z,98990.56
2018-12-27T11:03:54.590Z,98985.91
2018-12-27T11:06:22.997Z,98975.26
2018-12-27T11:08:51.398Z,98976.22
2018-12-27T11:11:20.074Z,98972.25
2018-12-27T11:13:48.481Z,98963.32
2018-12-27T11:16:17.136Z,98959.28
2018-12-27T11:18:45.590Z,98957.22
2018-12-27T11:21:13.998Z,98951.00
2018-12-27T11:23:42.392Z,98950.36
2018-12-27T11:26:10.779Z,98945.92
2018-12-27T11:28:39.186Z,98945.40
2018-12-27T11:31:07.576Z,98943.56
2018-12-27T11:33:35.966Z,98939.67
2018-12-27T11:36:04.685Z,98939.82
2018-12-27T11:38:33.366Z,98926.48
2018-12-27T11:41:05.461Z,98927.50
2018-12-27T11:43:34.410Z,98922.61
2018-12-27T11:46:03.116Z,98920.02
2018-12-27T11:48:31.503Z,98918.93
2018-12-27T11:50:59.962Z,98916.72
2018-12-27T11:53:28.350Z,98913.61
2018-12-27T11:55:56.738Z,98908.25
2018-12-27T11:58:25.157Z,98914.72
2018-12-27T12:00:53.895Z,98907.34
2018-12-27T12:03:22.580Z,98907.67
2018-12-27T12:05:50.981Z,98899.97
2018-12-27T12:08:19.385Z,98899.44
2018-12-27T12:10:47.771Z,98896.02
2018-12-27T12:13:16.162Z,98893.02
2018-12-27T12:15:44.568Z,98902.86
2018-12-27T12:18:13.261Z,98891.72
2018-12-27T12:20:41.734Z,98889.72
2018-12-27T12:23:10.140Z,98886.92
2018-12-27T12:25:38.526Z,98885.98
2018-12-27T12:28:06.916Z,98884.48
2018-12-27T12:30:35.556Z,98875.61
2018-12-27T12:33:04.699Z,98873.02
2018-12-27T12:35:33.082Z,98871.83
2018-12-27T12:38:01.758Z,98871.86
2018-12-27T12:40:30.150Z,98869.23
2018-12-27T12:43:00.220Z,98867.52
2018-12-27T12:45:28.912Z,98870.30
2018-12-27T12:47:57.423Z,98866.02
2018-12-27T12:50:25.778Z,98861.94
2018-12-27T12:52:54.453Z,98862.54
2018-12-27T12:55:22.844Z,98865.17
2018-12-27T12:57:51.238Z,98866.28
2018-12-27T13:00:19.885Z,98864.02
2018-12-27T13:02:48.810Z,98861.14
2018-12-27T13:05:17.250Z,98864.81
2018-12-27T13:07:45.665Z,98860.34
2018-12-27T13:10:14.349Z,98863.33
2018-12-27T13:12:43.010Z,98860.61
2018-12-27T13:15:11.421Z,98854.97
2018-12-27T13:17:40.882Z,98850.75
2018-12-27T13:20:09.694Z,98850.27
2018-12-27T13:22:38.097Z,98855.41
2018-12-27T13:25:06.964Z,98850.03
2018-12-27T13:27:35.355Z,98846.05
2018-12-27T13:30:04.645Z,98845.53
2018-12-27T13:32:33.328Z,98844.33
2018-12-27T13:35:01.722Z,98835.75
2018-12-27T13:37:30.135Z,98839.14
2018-12-27T13:39:58.530Z,98836.48
2018-12-27T13:42:27.266Z,98838.58
2018-12-27T13:44:55.666Z,98841.52
2018-12-27T13:47:24.241Z,98838.88
2018-12-27T13:49:52.896Z,98841.97
2018-12-27T13:52:21.358Z,98842.14
2018-12-27T13:54:50.068Z,98842.97
2018-12-27T13:57:18.710Z,98844.64
2018-12-27T13:59:47.112Z,98845.64
2018-12-27T14:02:15.816Z,98836.64
2018-12-27T14:04:44.219Z,98840.77
2018-12-27T14:07:12.879Z,98840.81
2018-12-27T14:09:41.272Z,98834.28
2018-12-27T14:12:09.944Z,98840.73
2018-12-27T14:14:38.395Z,98843.18
2018-12-27T14:17:06.793Z,98842.33
2018-12-27T14:19:35.204Z,98838.72
2018-12-27T14:22:03.873Z,98830.93
2018-12-27T14:24:32.275Z,98840.33
2018-12-27T14:27:01.427Z,98830.24
2018-12-27T14:29:30.135Z,98835.41
2018-12-27T14:31:58.763Z,98833.86
2018-12-27T14:34:27.506Z,98838.27
2018-12-27T14:36:55.922Z,98841.45
2018-12-27T14:39:24.572Z,98840.25
2018-12-27T14:41:52.973Z,98843.25
2018-12-27T14:44:21.382Z,98843.39
2018-12-27T14:46:49.773Z,98839.86
2018-12-27T14:49:18.497Z,98849.38
2018-12-27T14:51:46.890Z,98850.03
2018-12-27T14:54:15.287Z,98850.29
2018-12-27T14:56:43.697Z,98852.64
2018-12-27T14:59:12.420Z,98847.18
2018-12-27T15:01:41.102Z,98859.11
2018-12-27T15:04:09.792Z,98859.94
2018-12-27T15:06:38.203Z,98858.34
2018-12-27T15:09:07.170Z,98861.35
2018-12-27T15:11:35.846Z,98861.82
2018-12-27T15:14:04.244Z,98853.94
2018-12-27T15:16:32.925Z,98853.52
2018-12-27T15:19:01.336Z,98854.23
2018-12-27T15:21:29.730Z,98856.91
2018-12-27T15:23:58.123Z,98859.41
2018-12-27T15:26:26.838Z,98854.87
2018-12-27T15:28:55.235Z,98856.11
2018-12-27T15:31:23.659Z,98850.52
2018-12-27T15:33:52.202Z,98843.02
2018-12-27T15:36:20.578Z,98847.20
2018-12-27T15:38:48.934Z,98844.01
2018-12-27T15:41:36.724Z,98844.21
2018-12-27T15:44:05.392Z,98845.52
2018-12-27T15:46:33.785Z,98846.78
2018-12-27T15:49:02.457Z,98850.65
2018-12-27T15:51:30.851Z,98849.05
2018-12-27T15:53:59.243Z,98852.47
2018-12-27T15:56:27.655Z,98855.68
2018-12-27T15:58:56.391Z,98859.23
2018-12-27T16:01:25.169Z,98864.59
2018-12-27T16:03:53.581Z,98868.14
2018-12-27T16:06:21.975Z,98864.84
2018-12-27T16:08:50.366Z,98871.63
2018-12-27T16:11:18.775Z,98872.92
2018-12-27T16:13:47.179Z,98874.95
2018-12-27T16:16:15.574Z,98873.50
2018-12-27T16:18:44.231Z,98872.52
2018-12-27T16:21:12.918Z,98876.73
2018-12-27T16:23:41.602Z,98870.95
2018-12-27T16:26:10.009Z,98874.11
2018-12-27T16:28:38.402Z,98877.50
2018-12-27T16:34:20.995Z,98881.33
2018-12-27T16:36:49.676Z,98884.47
2018-12-27T16:39:18.368Z,98881.34
2018-12-27T16:41:46.777Z,98883.88
2018-12-27T16:44:15.429Z,98877.86
2018-12-27T16:46:43.824Z,98883.66
2018-12-27T16:49:12.289Z,98882.59
2018-12-27T16:51:40.978Z,98881.06
2018-12-27T16:54:09.661Z,98876.81
2018-12-27T16:56:38.118Z,98876.63
2018-12-27T16:59:06.758Z,98869.71
2018-12-27T17:01:35.121Z,98867.66
2018-12-27T17:04:03.525Z,98874.38
2018-12-27T17:06:31.918Z,98875.48
2018-12-27T17:09:00.653Z,98876.88
2018-12-27T17:11:29.045Z,98874.27
2018-12-27T17:13:57.722Z,98873.86
2018-12-27T17:16:26.405Z,98887.84
2018-12-27T17:19:14.134Z,98882.06
2018-12-27T17:21:42.541Z,98873.02
2018-12-27T17:24:11.198Z,98877.16
2018-12-27T17:26:39.891Z,98881.16
2018-12-27T17:29:08.301Z,98880.91
2018-12-27T17:31:36.700Z,98868.60
2018-12-27T17:34:05.097Z,98879.28
2018-12-27T17:36:33.501Z,98887.38
2018-12-27T17:39:01.899Z,98882.30
2018-12-27T17:41:30.565Z,98881.88
2018-12-27T17:43:59.225Z,98878.23
2018-12-27T17:46:27.638Z,98878.94
2018-12-27T17:48:56.029Z,98880.73
2018-12-27T17:51:24.426Z,98882.86
2018-12-27T17:53:52.843Z,98883.62
2018-12-27T17:56:21.239Z,98882.55
2018-12-27T17:58:49.874Z,98876.61
2018-12-27T18:01:18.286Z,98879.48
2018-12-27T18:03:47.013Z,98883.03
2018-12-27T18:06:15.417Z,98885.83
2018-12-27T18:08:43.886Z,98886.90
2018-12-27T18:11:12.287Z,98885.30
2018-12-27T18:13:40.684Z,98883.20
2018-12-27T18:16:09.521Z,98883.59
2018-12-27T18:18:37.918Z,98879.05
2018-12-27T18:21:06.315Z,98884.64
2018-12-27T18:23:34.738Z,98886.98
2018-12-27T18:26:03.130Z,98885.98
2018-12-27T18:28:31.809Z,98878.97
2018-12-27T18:31:00.227Z,98887.54
2018-12-27T18:33:28.627Z,98881.72
2018-12-27T18:35:57.356Z,98885.38
2018-12-27T18:38:25.773Z,98888.05
2018-12-27T18:40:54.166Z,98893.91
2018-12-27T18:43:22.902Z,98897.17
2018-12-27T18:46:10.760Z,98898.62
2018-12-27T18:48:39.672Z,98891.84
2018-12-27T18:51:08.209Z,98900.00
2018-12-27T18:53:36.734Z,98898.81
2018-12-27T18:56:05.068Z,98891.16
2018-12-27T18:58:33.498Z,98895.22
2018-12-27T19:01:01.881Z,98903.28
2018-12-27T19:03:30.274Z,98895.43
2018-12-27T19:06:06.371Z,98893.20
2018-12-27T19:08:34.767Z,98895.39
2018-12-27T19:11:42.019Z,98898.62
2018-12-27T19:14:10.410Z,98893.27
2018-12-27T19:16:38.807Z,98900.45
2018-12-27T19:19:07.484Z,98903.16
2018-12-27T19:22:15.799Z,98905.11
2018-12-27T19:24:44.212Z,98908.27
2018-12-27T19:27:12.611Z,98917.15
2018-12-27T19:29:41.341Z,98919.85
2018-12-27T19:32:09.812Z,98922.12
2018-12-27T19:34:38.227Z,98912.75
2018-12-27T19:37:06.617Z,98911.47
2018-12-27T19:39:35.013Z,98911.86
2018-12-27T19:42:03.486Z,98912.82
2018-12-27T19:44:31.825Z,98906.92
2018-12-27T19:47:00.223Z,98910.39
2018-12-27T19:49:28.628Z,98919.59
2018-12-27T19:51:57.022Z,98911.34
2018-12-27T19:54:31.729Z,98915.81
2018-12-27T19:56:55.542Z,98917.48
2018-12-27T19:59:43.276Z,98919.05
2018-12-27T20:02:11.694Z,98918.69
2018-12-27T20:04:40.082Z,98908.40
2018-12-27T20:10:02.916Z,98916.74
2018-12-27T20:12:31.316Z,98918.81
2018-12-27T20:14:59.710Z,98919.17
2018-12-27T20:17:28.122Z,98924.35
2018-12-27T20:20:15.863Z,98912.08
2018-12-27T20:22:44.281Z,98914.03
2018-12-27T20:25:12.680Z,98920.83
2018-12-27T20:27:41.334Z,98917.65
2018-12-27T20:30:09.747Z,98931.20
2018-12-27T20:32:38.138Z,98924.11
2018-12-27T20:35:06.788Z,98925.55
2018-12-27T20:37:35.420Z,98931.56
2018-12-27T20:43:11.899Z,98929.09
2018-12-27T20:45:40.633Z,98918.36
2018-12-27T20:48:09.030Z,98908.55
2018-12-27T20:50:37.442Z,98909.41
2018-12-27T20:53:06.178Z,98902.80
2018-12-27T20:55:53.938Z,98904.28
2018-12-27T20:58:22.598Z,98904.45
2018-12-27T21:00:51.234Z,98909.59
2018-12-27T21:03:19.989Z,98914.02
2018-12-27T21:06:07.702Z,98916.09
2018-12-27T21:08:36.110Z,98908.48
2018-12-27T21:11:04.745Z,98908.53
2018-12-27T21:13:33.467Z,98906.45
2018-12-27T21:16:02.141Z,98904.16
2018-12-27T21:18:30.826Z,98911.34
2018-12-27T21:20:59.517Z,98903.09
2018-12-27T21:23:28.197Z,98892.25
2018-12-27T21:25:56.589Z,98900.92
2018-12-27T21:28:25.047Z,98894.02
2018-12-27T21:30:53.455Z,98897.62
2018-12-27T21:33:21.846Z,98901.07
2018-12-27T21:35:50.504Z,98906.66
2018-12-27T21:38:21.494Z,98908.27
2018-12-27T21:40:49.272Z,98909.97
2018-12-27T21:43:17.670Z,98905.52
2018-12-27T21:45:46.370Z,98913.64
2018-12-27T21:48:14.768Z,98914.40
2018-12-27T21:50:43.436Z,98904.39
2018-12-27T21:53:11.855Z,98908.10
2018-12-27T21:55:40.253Z,98897.42
2018-12-27T21:58:08.651Z,98898.78
2018-12-27T22:00:37.064Z,98902.01
2018-12-27T22:03:05.461Z,98899.88
2018-12-27T22:05:33.912Z,98908.98
2018-12-27T22:08:02.329Z,98910.53
2018-12-27T22:10:30.726Z,98916.03
2018-12-27T22:12:59.131Z,98913.31
2018-12-27T22:15:27.839Z,98910.48
2018-12-27T22:17:56.233Z,98913.11
2018-12-27T22:20:24.913Z,98913.30
2018-12-27T22:22:53.323Z,98917.48
2018-12-27T22:25:21.722Z,98916.63
2018-12-27T22:27:50.118Z,98914.16
2018-12-27T22:30:18.531Z,98909.48
2018-12-27T22:32:47.206Z,98913.59
2018-12-27T22:35:15.610Z,98911.08
2018-12-27T22:37:44.373Z,98909.80
2018-12-27T22:40:12.776Z,98917.06
2018-12-27T22:42:41.169Z,98913.44
2018-12-27T22:45:09.579Z,98923.04
2018-12-27T22:47:37.995Z,98931.92
2018-12-27T22:50:25.743Z,98923.44
2018-12-27T22:52:54.147Z,98918.06
2018-12-27T22:56:02.519Z,98920.41
2018-12-27T22:58:31.163Z,98915.91
2018-12-27T23:00:59.632Z,98913.72
2018-12-27T23:03:28.047Z,98914.54
2018-12-27T23:05:56.452Z,98907.62
2018-12-27T23:08:25.091Z,98904.90
2018-12-27T23:10:53.813Z,98898.81
2018-12-27T23:13:22.218Z,98897.91
2018-12-27T23:15:50.615Z,98898.90
2018-12-27T23:18:19.027Z,98897.14
2018-12-27T23:20:47.744Z,98899.09
2018-12-27T23:23:16.134Z,98902.45
2018-12-27T23:25:44.801Z,98901.97
2018-12-27T23:28:13.465Z,98894.31
2018-12-27T23:30:41.863Z,98900.30
2018-12-27T23:33:10.556Z,98894.79
2018-12-27T23:35:39.113Z,98892.44
2018-12-27T23:38:07.825Z,98889.63
2018-12-27T23:40:36.249Z,98887.58
2018-12-27T23:43:04.646Z,98890.33
2018-12-27T23:45:33.054Z,98886.06
2018-12-27T23:48:01.458Z,98884.28
2018-12-27T23:50:49.216Z,98880.61
2018-12-27T23:53:17.633Z,98876.91
2018-12-27T23:55:46.035Z,98879.45
2018-12-27T23:58:14.492Z,98879.38
